Aviation Digital Data Service (ADDS)

Output produced by TAFs form (0356 UTC 19 December 2014)
found at http://www.aviationweather.gov/adds/tafs/
 
KGFL 190342Z 1904/1924 33005KT P6SM OVC045 
     FM190600 32005KT P6SM OVC025 
     FM191200 34006KT P6SM BKN025 
     FM191700 35005KT P6SM SCT025 BKN035